»·PEaware :: DARTAR81 KLAS-KEDW

DARTAR81 :: KLAS-KEDW

FLIGHT INFORMATION

Flight Status: Arrived
Operator: Unknown
More flights by this operator :: More flights under this callsign
Pilot: Sanjiv S. (4490)
Aircraft: BRITISH AERO HAWK T45 GOSHAWK
(HAWK)
More flights by this aircraft type
Origin: KLAS McCarran Intl
United States
Destination: KEDW Edwards AFB
United States
More flights between these airports :: More routes between these airports
Route: +
File this flight plan on PilotEdge
Remarks:
Altitude:
(Current/Filed)
0ft
Speed:
(Current/Filed)
0kts
Departed: 12-Oct-18 10:31 AM
Arrived: 12-Oct-18 11:07 AM
Distance/Time
Traveled:
151nm/0:36
Distance/Time
To Go:
Arrived

Flight Plot

Page will automatically refresh every two minutes.

Flight plan parsing failed; only flown route is shown


Map Options




Map Legend


Flown Route
Filed Route
Departure Airport
Arrival Airport
Navaid (VOR, NDB)
Fix

Horizontal Profiles

Position Reports

Time Latitude Longitude Heading Altitude Ground
Speed
12-Oct-18 10:10 36.094433 -115.163848 90 2118ft 0kts
12-Oct-18 10:11 36.094433 -115.163848 90 2118ft 0kts
12-Oct-18 10:12 36.094433 -115.163848 90 2118ft 0kts
12-Oct-18 10:13 36.094433 -115.163848 90 2118ft 0kts
12-Oct-18 10:14 36.094433 -115.163848 90 2118ft 0kts
12-Oct-18 10:15 36.094433 -115.163848 90 2118ft 0kts
12-Oct-18 10:16 36.094432 -115.163786 89 2117ft 2kts
12-Oct-18 10:17 36.094411 -115.162561 93 2113ft 6kts
12-Oct-18 10:18 36.094401 -115.161825 88 2110ft 0kts
12-Oct-18 10:19 36.094197 -115.161815 212 2110ft 5kts
12-Oct-18 10:20 36.092263 -115.163061 205 2119ft 12kts
12-Oct-18 10:21 36.088722 -115.165083 206 2137ft 22kts
12-Oct-18 10:22 36.082002 -115.168931 205 2164ft 32kts
12-Oct-18 10:23 36.077411 -115.171230 182 2181ft 8kts
12-Oct-18 10:24 36.077918 -115.170380 45 2178ft 7kts
12-Oct-18 10:25 36.078058 -115.169059 83 2174ft 4kts
12-Oct-18 10:26 36.078126 -115.167428 100 2169ft 4kts
12-Oct-18 10:27 36.078104 -115.167272 99 2169ft 5kts
12-Oct-18 10:28 36.078104 -115.167272 99 2169ft 5kts
12-Oct-18 10:29 36.078060 -115.166978 150 2168ft 0kts
12-Oct-18 10:30 36.078016 -115.167410 271 2169ft 4kts
12-Oct-18 10:31 36.078023 -115.167584 272 2169ft 0kts
12-Oct-18 10:32 36.078034 -115.168185 284 2171ft 6kts
12-Oct-18 10:33 36.083763 -115.165518 24 2155ft 126kts
12-Oct-18 10:34 36.118270 -115.170897 257 4380ft 233kts
12-Oct-18 10:35 36.091063 -115.253163 244 5037ft 325kts
12-Oct-18 10:36 36.052263 -115.353752 244 5189ft 382kts
12-Oct-18 10:37 36.019684 -115.465664 252 6766ft 375kts
12-Oct-18 10:38 35.985035 -115.576034 233 6375ft 403kts
12-Oct-18 10:39 35.916556 -115.659444 219 6330ft 409kts
12-Oct-18 10:40 35.873836 -115.702292 215 6557ft 405kts
12-Oct-18 10:41 35.781963 -115.773435 211 6400ft 411kts
12-Oct-18 10:42 35.694592 -115.849852 222 6300ft 417kts
12-Oct-18 10:43 35.660045 -115.993550 265 6403ft 419kts
12-Oct-18 10:44 35.651534 -116.106936 257 6424ft 419kts
12-Oct-18 10:45 35.609734 -116.233165 244 6491ft 420kts
12-Oct-18 10:46 35.552595 -116.350789 230 6449ft 421kts
12-Oct-18 10:47 35.484264 -116.457173 235 6754ft 412kts
12-Oct-18 10:48 35.424707 -116.568684 238 6555ft 400kts
12-Oct-18 10:49 35.379753 -116.657361 240 6614ft 384kts
12-Oct-18 10:50 35.345095 -116.729890 233 7366ft 357kts
12-Oct-18 10:51 35.299939 -116.817510 240 6152ft 374kts
12-Oct-18 10:52 35.255913 -116.905178 233 6325ft 354kts
12-Oct-18 10:53 35.199262 -116.996691 234 6437ft 340kts
12-Oct-18 10:54 35.161919 -117.062600 235 6577ft 335kts
12-Oct-18 10:55 35.117123 -117.137223 235 6745ft 326kts
12-Oct-18 10:56 35.074532 -117.212215 234 6611ft 330kts
12-Oct-18 10:57 35.040465 -117.279318 246 6999ft 318kts
12-Oct-18 10:58 35.007754 -117.376054 249 8445ft 253kts
12-Oct-18 10:59 34.989532 -117.440196 252 7034ft 260kts
12-Oct-18 11:00 34.972521 -117.513991 259 6327ft 232kts
12-Oct-18 11:01 34.966039 -117.583815 268 5419ft 222kts
12-Oct-18 11:02 34.970584 -117.639972 284 5110ft 201kts
12-Oct-18 11:03 34.974871 -117.672069 275 4535ft 218kts
12-Oct-18 11:04 34.972896 -117.727882 257 4675ft 177kts
12-Oct-18 11:05 34.961001 -117.772954 245 3659ft 147kts
12-Oct-18 11:06 34.948134 -117.800473 235 3270ft 135kts
12-Oct-18 11:07 34.931790 -117.831976 238 2915ft 129kts
12-Oct-18 11:08 34.915447 -117.864197 238 2323ft 121kts
12-Oct-18 11:09 34.906455 -117.881637 240 2292ft 38kts
12-Oct-18 11:10 34.904993 -117.882741 124 2292ft 8kts
12-Oct-18 11:11 34.903943 -117.880399 118 2290ft 12kts
12-Oct-18 11:12 34.902257 -117.876542 114 2288ft 13kts
12-Oct-18 11:13 34.902058 -117.874071 166 2285ft 5kts
12-Oct-18 11:14 34.900155 -117.874426 168 2285ft 7kts
12-Oct-18 11:15 34.899690 -117.873861 129 2285ft 7kts
12-Oct-18 11:16 34.899551 -117.873738 152 2285ft 6kts
12-Oct-18 11:17 34.899202 -117.873620 168 2285ft 0kts

Navigation Log

Ident Type
Flight plan parsing failed, navigation log unavailable